Weather reports worldwide

Advertisment
Cholet, France (7233): temperature & dewpoint: 12.01.2020 12:00:00 - 18.01.2020 12:00:00 (CET)Cholet, France (7233): wind speed & gusts: 12.01.2020 12:00:00 - 18.01.2020 12:00:00 (CET)Cholet, France (7233): wind direction: 12.01.2020 12:00:00 - 18.01.2020 12:00:00 (CET)Cholet, France (7233): reduced air pressure: 12.01.2020 12:00:00 - 18.01.2020 12:00:00 (CET)Cholet, France (7233): precipitation: 12.01.2020 12:00:00 - 18.01.2020 12:00:00 (CET)
Date & Time tt [°C] td [°C] ff [km/h] ff [kn] fx [km/h] fx [kn] dd ppp [hPa] rr [mm]
18.01.2020 12:00:00 - - - - - - - - -
18.01.2020 11:00:00 6,5 4,0 9 5 13 7 SSE 1028,2 0,0
18.01.2020 10:00:00 3,8 2,6 8 4 9 5 SSE 1028,3 0,0
18.01.2020 09:00:00 3,3 2,3 5 3 9 5 SSE 1028,8 0,0
18.01.2020 08:00:00 3,2 2,3 5 3 9 5 S 1029,0 0,0
18.01.2020 07:00:00 2,8 1,8 8 4 8 4 SSE 1028,9 -
18.01.2020 06:00:00 3,3 2,3 5 3 9 5 S 1029,1 0,0
18.01.2020 05:00:00 3,4 2,2 8 4 11 6 SSW 1029,2 0,0
18.01.2020 04:00:00 3,4 2,1 8 4 11 6 S 1029,2 0,0
18.01.2020 03:00:00 3,7 2,1 8 4 13 7 SSW 1029,4 0,0
18.01.2020 02:00:00 3,9 2,1 8 4 15 8 SSW 1029,4 0,0
18.01.2020 01:00:00 3,9 2,4 9 5 15 8 SSW 1029,2 -
18.01.2020 00:00:00 4,1 2,3 8 4 16 9 SSW 1029,2 0,0
17.01.2020 23:00:00 4,4 2,3 11 6 16 9 SW 1028,8 0,0
17.01.2020 22:00:00 4,7 2,6 8 4 28 15 SW 1028,8 0,0
17.01.2020 21:00:00 4,9 2,8 8 4 16 9 WSW 1028,4 0,0
17.01.2020 20:00:00 4,7 3,2 8 4 15 8 SSW 1027,7 0,0
17.01.2020 19:00:00 5,0 3,3 9 5 16 9 SSW 1027,0 -
17.01.2020 18:00:00 6,1 3,3 9 5 37 20 SW 1026,2 0,0
17.01.2020 17:00:00 8,8 3,0 11 6 44 24 WSW 1025,0 0,0
17.01.2020 16:00:00 9,8 4,2 15 8 28 15 WSW 1024,2 0,0
17.01.2020 15:00:00 9,7 3,6 11 6 37 20 WSW 1023,4 0,0
17.01.2020 14:00:00 8,7 3,7 11 6 35 19 WSW 1023,2 0,0
17.01.2020 13:00:00 9,8 4,4 16 9 31 17 W 1022,7 0,0
17.01.2020 12:00:00 10,1 4,9 22 12 - - W 1022,5 -
17.01.2020 11:00:00 9,7 6,0 - - - - - 1021,2 0,0
17.01.2020 10:00:00 8,6 6,9 11 6 24 13 WSW 1020,7 0,0
17.01.2020 09:00:00 8,1 7,0 9 5 18 10 SW 1019,8 0,0
17.01.2020 08:00:00 8,5 7,6 13 7 26 14 SSW 1018,6 0,0
17.01.2020 07:00:00 8,9 7,5 15 8 31 17 SW 1017,9 -
17.01.2020 06:00:00 9,4 8,6 15 8 31 17 SSW 1017,2 0,0
17.01.2020 05:00:00 9,9 9,3 18 10 31 17 SSW 1016,9 0,0
17.01.2020 04:00:00 10,0 9,7 18 10 35 19 SSW 1016,6 0,0
17.01.2020 03:00:00 9,8 9,7 18 10 31 17 S 1016,5 0,0
17.01.2020 02:00:00 9,6 9,6 18 10 26 14 S 1016,5 1,0
17.01.2020 01:00:00 9,8 9,7 16 9 28 15 S 1016,8 -
17.01.2020 00:00:00 10,0 9,7 16 9 37 20 S 1016,9 0,8
16.01.2020 23:00:00 10,4 9,2 22 12 54 29 S 1016,8 0,0
16.01.2020 22:00:00 12,0 7,9 28 15 55 30 S 1016,0 0,0
16.01.2020 21:00:00 12,0 7,7 34 18 50 27 S 1015,8 0,0
16.01.2020 20:00:00 12,1 7,6 26 14 46 25 S 1016,0 0,0
16.01.2020 19:00:00 12,4 7,9 26 14 41 22 SSE 1015,9 -
16.01.2020 18:00:00 12,3 8,0 21 11 31 17 SSE 1016,6 0,0
16.01.2020 17:00:00 13,0 8,1 21 11 37 20 SSE 1016,8 0,0
16.01.2020 16:00:00 13,9 8,3 22 12 39 21 SSE 1016,8 0,0
16.01.2020 15:00:00 13,7 7,9 22 12 42 23 S 1017,6 0,0
16.01.2020 14:00:00 13,7 8,1 24 13 50 27 S 1018,3 0,0
16.01.2020 13:00:00 12,8 7,2 28 15 54 29 S 1019,2 -
16.01.2020 12:00:00 11,6 6,5 28 15 50 27 S 1020,5 0,0
16.01.2020 11:00:00 10,9 6,8 26 14 50 27 SSE 1020,5 0,0
16.01.2020 10:00:00 9,4 6,7 22 12 42 23 SSE 1020,9 0,0
16.01.2020 09:00:00 8,2 6,0 22 12 39 21 SSE 1021,0 0,0
16.01.2020 08:00:00 7,4 6,2 16 9 34 18 SSE 1021,6 0,0
16.01.2020 07:00:00 7,1 6,8 21 11 29 16 SSE 1021,8 -
16.01.2020 06:00:00 8,3 8,3 18 10 26 14 SSE 1022,4 0,0
16.01.2020 05:00:00 7,9 7,9 16 9 24 13 SSE 1023,0 0,0
16.01.2020 04:00:00 8,1 8,1 11 6 24 13 S 1023,0 0,0
16.01.2020 03:00:00 7,3 7,3 11 6 16 9 SSE 1023,3 0,0
16.01.2020 02:00:00 6,4 6,4 8 4 15 8 SE 1023,6 0,0
16.01.2020 01:00:00 5,9 5,9 9 5 13 7 SSE 1023,7 -
16.01.2020 00:00:00 6,1 6,1 9 5 13 7 SSE 1024,1 0,0
15.01.2020 23:00:00 5,9 5,8 9 5 13 7 SSE 1024,0 0,0
15.01.2020 22:00:00 6,1 6,0 9 5 13 7 SSE 1024,1 0,0
15.01.2020 21:00:00 6,9 6,6 4 2 9 5 S 1023,4 0,0
15.01.2020 20:00:00 7,7 6,9 8 4 11 6 SSW 1023,1 0,0
15.01.2020 19:00:00 8,0 6,8 5 3 11 6 S 1021,8 -
15.01.2020 18:00:00 9,0 7,1 5 3 18 10 SW 1020,6 0,0
15.01.2020 17:00:00 10,8 8,0 9 5 28 15 WSW 1019,1 0,0
15.01.2020 16:00:00 10,8 8,0 9 5 29 16 WSW 1017,8 0,0
15.01.2020 15:00:00 11,3 8,7 11 6 42 23 W 1016,2 0,0
15.01.2020 14:00:00 12,3 9,5 22 12 42 23 SW 1015,1 0,0
15.01.2020 13:00:00 11,3 9,7 26 14 55 30 SSW 1013,9 -
15.01.2020 12:00:00 10,7 7,6 34 18 59 32 S 1013,0 0,0
15.01.2020 11:00:00 10,4 6,5 31 17 54 29 S 1012,6 0,0
15.01.2020 10:00:00 9,8 6,0 29 16 52 28 S 1012,0 0,0
15.01.2020 09:00:00 8,9 5,5 34 18 59 32 S 1010,7 0,0
15.01.2020 08:00:00 8,7 5,4 31 17 54 29 S 1010,6 0,0
15.01.2020 07:00:00 8,5 5,2 29 16 50 27 S 1010,6 -
15.01.2020 06:00:00 8,5 5,1 28 15 50 27 S 1010,8 0,0
15.01.2020 05:00:00 8,5 5,1 35 19 59 32 S 1010,9 0,0
15.01.2020 04:00:00 8,3 5,0 29 16 54 29 S 1011,1 0,0
15.01.2020 03:00:00 8,7 4,9 34 18 55 30 S 1011,4 0,0
15.01.2020 02:00:00 9,0 5,2 34 18 50 27 S 1011,3 0,0
15.01.2020 01:00:00 9,5 5,3 31 17 57 31 S 1011,8 -
15.01.2020 00:00:00 9,5 6,2 29 16 48 26 S 1012,0 0,0
14.01.2020 23:00:00 9,6 6,9 31 17 50 27 S 1012,0 0,0
14.01.2020 22:00:00 9,7 6,6 26 14 42 23 S 1012,5 0,0
14.01.2020 21:00:00 9,5 6,8 26 14 44 24 S 1012,5 0,0
14.01.2020 20:00:00 8,8 7,4 16 9 35 19 S 1012,5 0,4
14.01.2020 19:00:00 9,3 8,4 24 13 50 27 S 1012,9 -
14.01.2020 18:00:00 9,7 8,6 29 16 52 28 S 1012,3 0,0
14.01.2020 17:00:00 9,8 8,4 28 15 52 28 S 1012,0 0,0
14.01.2020 16:00:00 9,5 8,1 35 19 63 34 S 1011,8 0,0
14.01.2020 15:00:00 9,3 8,1 34 18 59 32 S 1011,5 0,0
14.01.2020 14:00:00 9,4 8,0 34 18 59 32 S 1011,6 0,0
14.01.2020 13:00:00 8,9 8,0 29 16 54 29 S 1011,6 -
14.01.2020 12:00:00 8,6 7,7 34 18 57 31 S 1012,0 0,2
14.01.2020 11:00:00 8,1 7,8 34 18 59 32 S 1011,8 0,6
14.01.2020 10:00:00 9,3 9,3 34 18 55 30 S 1010,9 1,0
14.01.2020 09:00:00 8,7 8,7 31 17 54 29 S 1010,5 2,0
14.01.2020 08:00:00 9,8 9,8 29 16 55 30 S 1010,3 2,0
14.01.2020 07:00:00 9,6 9,6 29 16 61 33 S 1010,0 -
14.01.2020 06:00:00 10,1 10,1 26 14 48 26 SSW 1009,7 2,0
14.01.2020 05:00:00 9,5 9,4 28 15 52 28 S 1009,7 2,0
14.01.2020 04:00:00 9,9 9,0 29 16 52 28 S 1010,0 1,0
14.01.2020 03:00:00 9,4 7,8 31 17 52 28 S 1010,3 0,0
14.01.2020 02:00:00 9,0 7,3 29 16 54 29 S 1010,7 0,0
14.01.2020 01:00:00 9,5 7,6 28 15 52 28 SSW 1010,8 -
14.01.2020 00:00:00 8,7 7,0 29 16 48 26 S 1011,1 0,0
13.01.2020 23:00:00 9,2 7,5 29 16 54 29 S 1011,3 0,0
13.01.2020 22:00:00 8,8 6,8 28 15 55 30 S 1012,0 0,0
13.01.2020 21:00:00 8,8 6,1 29 16 48 26 S 1012,5 0,0
13.01.2020 20:00:00 8,8 6,4 29 16 44 24 S 1013,0 0,0
13.01.2020 19:00:00 8,9 6,7 26 14 42 23 S 1012,9 -
13.01.2020 18:00:00 8,9 7,2 24 13 41 22 S 1013,4 0,2
13.01.2020 17:00:00 9,2 7,6 24 13 42 23 S 1014,3 0,0
13.01.2020 16:00:00 9,2 7,6 28 15 42 23 S 1014,8 0,0
13.01.2020 15:00:00 8,9 7,7 24 13 46 25 S 1016,0 0,0
13.01.2020 14:00:00 8,7 7,8 29 16 50 27 S 1016,6 0,0
13.01.2020 13:00:00 8,3 7,9 28 15 57 31 S 1017,7 -
13.01.2020 12:00:00 8,7 8,6 29 16 52 28 S 1018,7 0,0
13.01.2020 11:00:00 9,2 9,2 26 14 41 22 S 1019,6 0,0
13.01.2020 10:00:00 9,4 9,4 24 13 42 23 S 1019,8 0,4
13.01.2020 09:00:00 9,4 9,4 22 12 37 20 S 1019,9 0,6
13.01.2020 08:00:00 9,2 9,2 13 7 22 12 S 1020,2 0,6
13.01.2020 07:00:00 8,2 8,2 13 7 24 13 SSE 1021,1 -
13.01.2020 06:00:00 8,3 8,3 13 7 24 13 S 1022,1 0,0
13.01.2020 05:00:00 8,8 8,8 13 7 26 14 S 1023,0 0,0
13.01.2020 04:00:00 8,9 8,9 13 7 21 11 S 1023,9 0,2
13.01.2020 03:00:00 9,1 9,1 11 6 18 10 S 1024,4 0,0
13.01.2020 02:00:00 9,0 9,0 9 5 15 8 S 1025,2 0,0
13.01.2020 01:00:00 8,3 8,3 8 4 11 6 S 1026,1 -
13.01.2020 00:00:00 8,5 8,5 8 4 11 6 S 1026,5 0,0
12.01.2020 23:00:00 8,4 8,4 5 3 9 5 SSW 1027,1 0,0
12.01.2020 22:00:00 8,3 8,3 8 4 13 7 S 1027,2 0,0
12.01.2020 21:00:00 8,2 8,2 5 3 11 6 S 1027,7 0,0
12.01.2020 20:00:00 7,8 7,8 8 4 9 5 SSW 1028,0 0,0
12.01.2020 19:00:00 8,5 8,5 5 3 9 5 SSW 1027,8 -
12.01.2020 18:00:00 9,0 9,0 5 3 9 5 SSW 1027,7 0,0
12.01.2020 17:00:00 9,6 9,6 4 2 13 7 S 1027,3 0,0
12.01.2020 16:00:00 10,1 10,1 9 5 15 8 S 1027,3 0,0
12.01.2020 15:00:00 9,3 9,3 15 8 28 15 SSW 1027,2 0,4
12.01.2020 14:00:00 9,1 9,1 16 9 34 18 SSW 1027,3 0,0
12.01.2020 13:00:00 9,2 9,1 21 11 35 19 SSW 1028,3 -
12.01.2020 12:00:00 9,3 8,4 18 10 35 19 SSW 1028,8 0,0

tt = temperature
td = dewpoint
ff = wind speed
fx = gusts
dd = wind direction
ppp = reduced air pressure
rr = precipitation

Next stations